DLH576L LEPA-LFMQ
Flight info
| Callsign | DLH576L |
|---|---|
| Flight time | 1h 11m |
| Altitude | 24000 |
| Route | MEROS N853 LUMAS/N0304F180 Z16 SOSUR/N0297F240 Z16 AGAKI Z152 LIPSU |
| Aircraft | AT46/M-SDFGIRY/S |
Departure
| Time | 2026-04-20 17:06 |
|---|---|
| Airport | Palma de Mallorca Airport (LEPA) |
Arrival
| Time | 2026-04-20 18:17 |
|---|---|
| Airport | Le Castellet Airport (LFMQ) |
| Time | Latitude | Longitude | Altitude | Speed | Heading |
|---|---|---|---|---|---|
| 2026-04-20 16:45 | 39.55170 | 2.72732 | 14 ft | 0 kts | 194° |
| 2026-04-20 16:57 | 39.55166 | 2.72731 | 29 ft | 3 kts | 193° |
| 2026-04-20 16:57 | 39.55132 | 2.72741 | 27 ft | 8 kts | 130° |
| 2026-04-20 16:57 | 39.55149 | 2.72829 | 27 ft | 14 kts | 57° |
| 2026-04-20 16:57 | 39.55208 | 2.72950 | 27 ft | 17 kts | 59° |
| 2026-04-20 16:58 | 39.55293 | 2.73036 | 30 ft | 16 kts | 332° |
| 2026-04-20 16:58 | 39.55368 | 2.72976 | 25 ft | 6 kts | 334° |
| 2026-04-20 16:58 | 39.55391 | 2.72969 | 25 ft | 6 kts | 6° |
| 2026-04-20 16:58 | 39.55434 | 2.73037 | 25 ft | 14 kts | 59° |
| 2026-04-20 16:59 | 39.55492 | 2.73157 | 23 ft | 17 kts | 58° |
| 2026-04-20 16:59 | 39.55557 | 2.73297 | 23 ft | 19 kts | 59° |
| 2026-04-20 16:59 | 39.55627 | 2.73444 | 24 ft | 17 kts | 58° |
| 2026-04-20 16:59 | 39.55689 | 2.73573 | 23 ft | 18 kts | 58° |
| 2026-04-20 17:00 | 39.55806 | 2.73822 | 21 ft | 8 kts | 58° |
| 2026-04-20 17:00 | 39.55842 | 2.73896 | 21 ft | 14 kts | 57° |
| 2026-04-20 17:00 | 39.55904 | 2.74027 | 18 ft | 19 kts | 58° |
| 2026-04-20 17:01 | 39.55969 | 2.74163 | 17 ft | 15 kts | 59° |
| 2026-04-20 17:01 | 39.56008 | 2.74246 | 15 ft | 8 kts | 52° |
| 2026-04-20 17:01 | 39.56035 | 2.74278 | 14 ft | 0 kts | 35° |
| 2026-04-20 17:01 | 39.56048 | 2.74289 | 16 ft | 8 kts | 30° |
| 2026-04-20 17:02 | 39.56117 | 2.74336 | 13 ft | 13 kts | 25° |
| 2026-04-20 17:02 | 39.56135 | 2.74347 | 13 ft | 0 kts | 23° |
| 2026-04-20 17:03 | 39.56144 | 2.74352 | 13 ft | 6 kts | 22° |
| 2026-04-20 17:03 | 39.56208 | 2.74343 | 13 ft | 11 kts | 321° |
| 2026-04-20 17:03 | 39.56229 | 2.74274 | 13 ft | 6 kts | 263° |
| 2026-04-20 17:04 | 39.56220 | 2.74240 | 14 ft | 2 kts | 243° |
| 2026-04-20 17:04 | 39.56216 | 2.74230 | 14 ft | 0 kts | 240° |
| 2026-04-20 17:05 | 39.56098 | 2.73983 | 17 ft | 76 kts | 238° |
| 2026-04-20 17:05 | 39.55679 | 2.73132 | 206 ft | 132 kts | 237° |
| 2026-04-20 17:06 | 39.55164 | 2.72093 | 720 ft | 143 kts | 237° |
| 2026-04-20 17:06 | 39.54569 | 2.70905 | 895 ft | 175 kts | 237° |
| 2026-04-20 17:06 | 39.53844 | 2.69586 | 1441 ft | 177 kts | 233° |
| 2026-04-20 17:06 | 39.53140 | 2.68243 | 2043 ft | 182 kts | 237° |
| 2026-04-20 17:07 | 39.52476 | 2.66827 | 2644 ft | 185 kts | 238° |
| 2026-04-20 17:07 | 39.51779 | 2.65415 | 3245 ft | 187 kts | 227° |
| 2026-04-20 17:07 | 39.51049 | 2.64808 | 3648 ft | 186 kts | 195° |
| 2026-04-20 17:07 | 39.49800 | 2.65007 | 4236 ft | 186 kts | 148° |
| 2026-04-20 17:08 | 39.49042 | 2.66301 | 4847 ft | 183 kts | 107° |
| 2026-04-20 17:08 | 39.48700 | 2.68026 | 4952 ft | 210 kts | 102° |
| 2026-04-20 17:08 | 39.48462 | 2.70019 | 4973 ft | 232 kts | 96° |
| 2026-04-20 17:08 | 39.48296 | 2.72145 | 4980 ft | 247 kts | 95° |
| 2026-04-20 17:09 | 39.48122 | 2.74398 | 4990 ft | 254 kts | 96° |
| 2026-04-20 17:09 | 39.47923 | 2.76708 | 4987 ft | 256 kts | 96° |
| 2026-04-20 17:09 | 39.47694 | 2.78996 | 4980 ft | 257 kts | 97° |
| 2026-04-20 17:09 | 39.47459 | 2.81293 | 4985 ft | 257 kts | 97° |
| 2026-04-20 17:10 | 39.47219 | 2.83592 | 4979 ft | 258 kts | 97° |
| 2026-04-20 17:10 | 39.46982 | 2.85920 | 4981 ft | 257 kts | 96° |
| 2026-04-20 17:10 | 39.47219 | 2.88174 | 4976 ft | 255 kts | 67° |
| 2026-04-20 17:10 | 39.47937 | 2.90253 | 4980 ft | 254 kts | 68° |
| 2026-04-20 17:11 | 39.48588 | 2.92379 | 4981 ft | 255 kts | 69° |
| 2026-04-20 17:11 | 39.49228 | 2.94538 | 4983 ft | 256 kts | 69° |
| 2026-04-20 17:11 | 39.49865 | 2.96688 | 4988 ft | 257 kts | 69° |
| 2026-04-20 17:11 | 39.50515 | 2.98871 | 4982 ft | 258 kts | 69° |
| 2026-04-20 17:12 | 39.51165 | 3.01048 | 4989 ft | 258 kts | 69° |
| 2026-04-20 17:12 | 39.51818 | 3.03225 | 4985 ft | 259 kts | 69° |
| 2026-04-20 17:12 | 39.52465 | 3.05383 | 5068 ft | 255 kts | 69° |
| 2026-04-20 17:12 | 39.53098 | 3.07505 | 5281 ft | 247 kts | 69° |
| 2026-04-20 17:13 | 39.53704 | 3.09545 | 5792 ft | 233 kts | 69° |
| 2026-04-20 17:13 | 39.54281 | 3.11466 | 6290 ft | 225 kts | 68° |
| 2026-04-20 17:13 | 39.54848 | 3.13355 | 6779 ft | 221 kts | 69° |
| 2026-04-20 17:13 | 39.55391 | 3.15183 | 7243 ft | 218 kts | 69° |
| 2026-04-20 17:14 | 39.55924 | 3.16992 | 7736 ft | 216 kts | 69° |
| 2026-04-20 17:14 | 39.56464 | 3.18821 | 8232 ft | 215 kts | 68° |
| 2026-04-20 17:14 | 39.56997 | 3.20626 | 8737 ft | 214 kts | 68° |
| 2026-04-20 17:14 | 39.57527 | 3.22429 | 9249 ft | 213 kts | 68° |
| 2026-04-20 17:15 | 39.58057 | 3.24215 | 9768 ft | 213 kts | 68° |
| 2026-04-20 17:15 | 39.58589 | 3.26004 | 10253 ft | 212 kts | 68° |
| 2026-04-20 17:15 | 39.59117 | 3.27790 | 10728 ft | 212 kts | 67° |
| 2026-04-20 17:15 | 39.59659 | 3.29547 | 11211 ft | 209 kts | 65° |
| 2026-04-20 17:16 | 39.60192 | 3.31284 | 11703 ft | 206 kts | 66° |
| 2026-04-20 17:16 | 39.60697 | 3.33010 | 12205 ft | 204 kts | 67° |
| 2026-04-20 17:16 | 39.61208 | 3.34796 | 12651 ft | 207 kts | 67° |
| 2026-04-20 17:16 | 39.61707 | 3.36530 | 13064 ft | 209 kts | 67° |
| 2026-04-20 17:17 | 39.62227 | 3.38331 | 13480 ft | 211 kts | 66° |
| 2026-04-20 17:17 | 39.62749 | 3.40122 | 13877 ft | 213 kts | 66° |
| 2026-04-20 17:17 | 39.63278 | 3.41925 | 14237 ft | 215 kts | 66° |
| 2026-04-20 17:17 | 39.63813 | 3.43747 | 14766 ft | 217 kts | 66° |
| 2026-04-20 17:18 | 39.64358 | 3.45606 | 15321 ft | 219 kts | 66° |
| 2026-04-20 17:18 | 39.64902 | 3.47456 | 15865 ft | 221 kts | 66° |
| 2026-04-20 17:18 | 39.65450 | 3.49326 | 16392 ft | 223 kts | 66° |
| 2026-04-20 17:18 | 39.66007 | 3.51222 | 16919 ft | 225 kts | 65° |
| 2026-04-20 17:19 | 39.66564 | 3.53119 | 17427 ft | 227 kts | 65° |
| 2026-04-20 17:19 | 39.67137 | 3.55076 | 17950 ft | 229 kts | 65° |
| 2026-04-20 17:19 | 39.67704 | 3.57020 | 18398 ft | 232 kts | 65° |
| 2026-04-20 17:19 | 39.68280 | 3.58984 | 18822 ft | 233 kts | 65° |
| 2026-04-20 17:20 | 39.68855 | 3.60955 | 19255 ft | 235 kts | 65° |
| 2026-04-20 17:20 | 39.69435 | 3.62941 | 19684 ft | 236 kts | 65° |
| 2026-04-20 17:20 | 39.70017 | 3.64941 | 20094 ft | 237 kts | 65° |
| 2026-04-20 17:20 | 39.70610 | 3.66980 | 20486 ft | 239 kts | 65° |
| 2026-04-20 17:21 | 39.71197 | 3.68998 | 20846 ft | 240 kts | 65° |
| 2026-04-20 17:21 | 39.71789 | 3.71028 | 21238 ft | 241 kts | 65° |
| 2026-04-20 17:21 | 39.72383 | 3.73074 | 21642 ft | 242 kts | 65° |
| 2026-04-20 17:21 | 39.72979 | 3.75129 | 22038 ft | 244 kts | 65° |
| 2026-04-20 17:22 | 39.73579 | 3.77198 | 22397 ft | 245 kts | 65° |
| 2026-04-20 17:22 | 39.74182 | 3.79278 | 22729 ft | 246 kts | 65° |
| 2026-04-20 17:22 | 39.74786 | 3.81362 | 23052 ft | 248 kts | 65° |
| 2026-04-20 17:22 | 39.75394 | 3.83465 | 23363 ft | 249 kts | 65° |
| 2026-04-20 17:23 | 39.76006 | 3.85577 | 23679 ft | 250 kts | 65° |
| 2026-04-20 17:23 | 39.76625 | 3.87715 | 23854 ft | 258 kts | 65° |
| 2026-04-20 17:23 | 39.77270 | 3.89947 | 23922 ft | 269 kts | 65° |
| 2026-04-20 17:23 | 39.77935 | 3.92255 | 23951 ft | 278 kts | 65° |
| 2026-04-20 17:24 | 39.78620 | 3.94633 | 23968 ft | 282 kts | 65° |
| 2026-04-20 17:24 | 39.79314 | 3.97039 | 23977 ft | 286 kts | 66° |
| 2026-04-20 17:24 | 39.80014 | 3.99474 | 23981 ft | 289 kts | 66° |
| 2026-04-20 17:24 | 39.80722 | 4.01936 | 23987 ft | 292 kts | 66° |
| 2026-04-20 17:25 | 39.81435 | 4.04418 | 23991 ft | 294 kts | 66° |
| 2026-04-20 17:25 | 39.82160 | 4.06947 | 23991 ft | 295 kts | 65° |
| 2026-04-20 17:25 | 39.82878 | 4.09451 | 23993 ft | 296 kts | 65° |
| 2026-04-20 17:25 | 39.83598 | 4.11966 | 23993 ft | 297 kts | 65° |
| 2026-04-20 17:26 | 39.84320 | 4.14489 | 23993 ft | 298 kts | 65° |
| 2026-04-20 17:26 | 39.85043 | 4.17018 | 23994 ft | 298 kts | 66° |
| 2026-04-20 17:26 | 39.85836 | 4.19514 | 24013 ft | 298 kts | 54° |
| 2026-04-20 17:26 | 39.87289 | 4.21372 | 24017 ft | 287 kts | 25° |
| 2026-04-20 17:27 | 39.88468 | 4.22126 | 23999 ft | 283 kts | 15° |
| 2026-04-20 17:27 | 39.90377 | 4.22788 | 23990 ft | 279 kts | 4° |
| 2026-04-20 17:27 | 39.92292 | 4.23165 | 23985 ft | 278 kts | 1° |
| 2026-04-20 17:27 | 39.94211 | 4.23489 | 23988 ft | 278 kts | 1° |
| 2026-04-20 17:28 | 39.96129 | 4.23866 | 23991 ft | 279 kts | 3° |
| 2026-04-20 17:28 | 39.98041 | 4.24314 | 23990 ft | 280 kts | 4° |
| 2026-04-20 17:28 | 39.99956 | 4.24790 | 23990 ft | 280 kts | 4° |
| 2026-04-20 17:28 | 40.01871 | 4.25260 | 23991 ft | 280 kts | 4° |
| 2026-04-20 17:29 | 40.03788 | 4.25716 | 23986 ft | 280 kts | 4° |
| 2026-04-20 17:29 | 40.05700 | 4.26164 | 23985 ft | 280 kts | 4° |
| 2026-04-20 17:29 | 40.07594 | 4.26607 | 23986 ft | 280 kts | 4° |
| 2026-04-20 17:29 | 40.09530 | 4.27065 | 23986 ft | 280 kts | 4° |
| 2026-04-20 17:30 | 40.11448 | 4.27519 | 23985 ft | 280 kts | 4° |
| 2026-04-20 17:30 | 40.13360 | 4.27972 | 23981 ft | 280 kts | 4° |
| 2026-04-20 17:30 | 40.15274 | 4.28426 | 23980 ft | 280 kts | 4° |
| 2026-04-20 17:30 | 40.17186 | 4.28880 | 23976 ft | 280 kts | 4° |
| 2026-04-20 17:31 | 40.19101 | 4.29333 | 23975 ft | 280 kts | 4° |
| 2026-04-20 17:31 | 40.21014 | 4.29786 | 23971 ft | 280 kts | 4° |
| 2026-04-20 17:31 | 40.22932 | 4.30240 | 23974 ft | 280 kts | 4° |
| 2026-04-20 17:31 | 40.24845 | 4.30693 | 23974 ft | 280 kts | 4° |
| 2026-04-20 17:32 | 40.26760 | 4.31147 | 23972 ft | 280 kts | 4° |
| 2026-04-20 17:32 | 40.28673 | 4.31600 | 23974 ft | 280 kts | 4° |
| 2026-04-20 17:32 | 40.30590 | 4.32053 | 23973 ft | 280 kts | 4° |
| 2026-04-20 17:32 | 40.32503 | 4.32507 | 23976 ft | 280 kts | 4° |
| 2026-04-20 17:33 | 40.34443 | 4.32967 | 23973 ft | 279 kts | 4° |
| 2026-04-20 17:33 | 40.36357 | 4.33420 | 23974 ft | 279 kts | 4° |
| 2026-04-20 17:33 | 40.38270 | 4.33875 | 23973 ft | 279 kts | 4° |
| 2026-04-20 17:33 | 40.40180 | 4.34329 | 23973 ft | 279 kts | 4° |
| 2026-04-20 17:34 | 40.42094 | 4.34785 | 23975 ft | 279 kts | 4° |
| 2026-04-20 17:34 | 40.44008 | 4.35241 | 23974 ft | 279 kts | 3° |
| 2026-04-20 17:34 | 40.45918 | 4.35696 | 23973 ft | 279 kts | 3° |
| 2026-04-20 17:34 | 40.47831 | 4.36152 | 23975 ft | 279 kts | 3° |
| 2026-04-20 17:35 | 40.49742 | 4.36608 | 23974 ft | 279 kts | 4° |
| 2026-04-20 17:35 | 40.51650 | 4.37063 | 23971 ft | 279 kts | 4° |
| 2026-04-20 17:35 | 40.53562 | 4.37518 | 23974 ft | 279 kts | 4° |
| 2026-04-20 17:35 | 40.55474 | 4.37975 | 23975 ft | 279 kts | 4° |
| 2026-04-20 17:36 | 40.57387 | 4.38433 | 23974 ft | 279 kts | 4° |
| 2026-04-20 17:36 | 40.59297 | 4.38890 | 23974 ft | 279 kts | 4° |
| 2026-04-20 17:36 | 40.61206 | 4.39346 | 23973 ft | 279 kts | 4° |
| 2026-04-20 17:36 | 40.63118 | 4.39804 | 23973 ft | 279 kts | 4° |
| 2026-04-20 17:37 | 40.65025 | 4.40261 | 23971 ft | 279 kts | 4° |
| 2026-04-20 17:37 | 40.66939 | 4.40720 | 23970 ft | 279 kts | 4° |
| 2026-04-20 17:37 | 40.68847 | 4.41178 | 23973 ft | 279 kts | 4° |
| 2026-04-20 17:37 | 40.70759 | 4.41637 | 23973 ft | 279 kts | 4° |
| 2026-04-20 17:38 | 40.72668 | 4.42095 | 23974 ft | 279 kts | 4° |
| 2026-04-20 17:38 | 40.74580 | 4.42554 | 23971 ft | 279 kts | 4° |
| 2026-04-20 17:38 | 40.76505 | 4.43017 | 23973 ft | 279 kts | 4° |
| 2026-04-20 17:38 | 40.78426 | 4.43479 | 23982 ft | 279 kts | 4° |
| 2026-04-20 17:39 | 40.80336 | 4.43939 | 23970 ft | 279 kts | 4° |
| 2026-04-20 17:39 | 40.82248 | 4.44399 | 23975 ft | 279 kts | 4° |
| 2026-04-20 17:39 | 40.84158 | 4.44859 | 23971 ft | 279 kts | 3° |
| 2026-04-20 17:39 | 40.86068 | 4.45319 | 23974 ft | 279 kts | 4° |
| 2026-04-20 17:40 | 40.87977 | 4.45780 | 23972 ft | 279 kts | 4° |
| 2026-04-20 17:40 | 40.89887 | 4.46245 | 23979 ft | 279 kts | 4° |
| 2026-04-20 17:40 | 40.91799 | 4.46705 | 23972 ft | 279 kts | 3° |
| 2026-04-20 17:40 | 40.93710 | 4.47166 | 23975 ft | 279 kts | 4° |
| 2026-04-20 17:41 | 40.95620 | 4.47628 | 23968 ft | 279 kts | 4° |
| 2026-04-20 17:41 | 40.97534 | 4.48092 | 23969 ft | 279 kts | 3° |
| 2026-04-20 17:41 | 40.99447 | 4.48557 | 23968 ft | 279 kts | 4° |
| 2026-04-20 17:41 | 41.01360 | 4.49022 | 23969 ft | 279 kts | 3° |
| 2026-04-20 17:42 | 41.03272 | 4.49485 | 23971 ft | 280 kts | 4° |
| 2026-04-20 17:42 | 41.05186 | 4.49951 | 23968 ft | 280 kts | 3° |
| 2026-04-20 17:42 | 41.07073 | 4.50409 | 23968 ft | 280 kts | 3° |
| 2026-04-20 17:42 | 41.08987 | 4.50879 | 23970 ft | 280 kts | 3° |
| 2026-04-20 17:43 | 41.10929 | 4.51348 | 23970 ft | 280 kts | 3° |
| 2026-04-20 17:43 | 41.12818 | 4.51807 | 23969 ft | 280 kts | 4° |
| 2026-04-20 17:43 | 41.14736 | 4.52274 | 23970 ft | 280 kts | 3° |
| 2026-04-20 17:43 | 41.16654 | 4.52740 | 23968 ft | 280 kts | 3° |
| 2026-04-20 17:44 | 41.18597 | 4.53212 | 23970 ft | 280 kts | 3° |
| 2026-04-20 17:44 | 41.20514 | 4.53679 | 23966 ft | 280 kts | 3° |
| 2026-04-20 17:44 | 41.22431 | 4.54147 | 23968 ft | 280 kts | 3° |
| 2026-04-20 17:44 | 41.24352 | 4.54614 | 23965 ft | 280 kts | 3° |
| 2026-04-20 17:45 | 41.26267 | 4.55084 | 23966 ft | 280 kts | 3° |
| 2026-04-20 17:45 | 41.28189 | 4.55551 | 23966 ft | 280 kts | 3° |
| 2026-04-20 17:45 | 41.30104 | 4.56022 | 23966 ft | 280 kts | 3° |
| 2026-04-20 17:45 | 41.32025 | 4.56493 | 23966 ft | 281 kts | 4° |
| 2026-04-20 17:46 | 41.33969 | 4.56967 | 23965 ft | 281 kts | 4° |
| 2026-04-20 17:46 | 41.35888 | 4.57437 | 23964 ft | 280 kts | 3° |
| 2026-04-20 17:46 | 41.37808 | 4.57912 | 23966 ft | 280 kts | 3° |
| 2026-04-20 17:46 | 41.39726 | 4.58380 | 23965 ft | 280 kts | 3° |
| 2026-04-20 17:47 | 41.41670 | 4.58858 | 23968 ft | 280 kts | 3° |
| 2026-04-20 17:47 | 41.43587 | 4.59334 | 23965 ft | 280 kts | 3° |
| 2026-04-20 17:47 | 41.45473 | 4.59794 | 23960 ft | 280 kts | 4° |
| 2026-04-20 17:47 | 41.47348 | 4.60258 | 23964 ft | 280 kts | 3° |
| 2026-04-20 17:48 | 41.49244 | 4.60721 | 23960 ft | 280 kts | 3° |
| 2026-04-20 17:48 | 41.51228 | 4.61214 | 23963 ft | 280 kts | 3° |
| 2026-04-20 17:48 | 41.53142 | 4.61686 | 23965 ft | 280 kts | 3° |
| 2026-04-20 17:48 | 41.55051 | 4.62156 | 23960 ft | 280 kts | 4° |
| 2026-04-20 17:49 | 41.56967 | 4.62631 | 23961 ft | 279 kts | 3° |
| 2026-04-20 17:49 | 41.58901 | 4.63108 | 23959 ft | 279 kts | 4° |
| 2026-04-20 17:49 | 41.60834 | 4.63588 | 23961 ft | 279 kts | 4° |
| 2026-04-20 17:49 | 41.62695 | 4.64048 | 23955 ft | 279 kts | 4° |
| 2026-04-20 17:50 | 41.64669 | 4.64536 | 23957 ft | 278 kts | 4° |
| 2026-04-20 17:50 | 41.65927 | 4.64851 | 23955 ft | 275 kts | 4° |
| 2026-04-20 17:50 | 41.67863 | 4.65328 | 23956 ft | 275 kts | 4° |
| 2026-04-20 17:50 | 41.69785 | 4.65803 | 23956 ft | 275 kts | 4° |
| 2026-04-20 17:51 | 41.71667 | 4.66270 | 23956 ft | 275 kts | 4° |
| 2026-04-20 17:51 | 41.73576 | 4.66748 | 23956 ft | 275 kts | 5° |
| 2026-04-20 17:51 | 41.75451 | 4.67404 | 23956 ft | 278 kts | 11° |
| 2026-04-20 17:51 | 41.77297 | 4.68209 | 23962 ft | 279 kts | 12° |
| 2026-04-20 17:52 | 41.79144 | 4.69019 | 23960 ft | 279 kts | 11° |
| 2026-04-20 17:52 | 41.81074 | 4.69816 | 23955 ft | 277 kts | 10° |
| 2026-04-20 17:52 | 41.83769 | 4.70874 | 23953 ft | 272 kts | 9° |
| 2026-04-20 17:53 | 41.85182 | 4.71418 | 23953 ft | 271 kts | 9° |
| 2026-04-20 17:53 | 41.85815 | 4.71660 | 23952 ft | 272 kts | 9° |
| 2026-04-20 17:53 | 41.87131 | 4.72152 | 23947 ft | 270 kts | 9° |
| 2026-04-20 17:53 | 41.88940 | 4.72856 | 23951 ft | 272 kts | 10° |
| 2026-04-20 17:54 | 41.90760 | 4.73580 | 23953 ft | 273 kts | 10° |
| 2026-04-20 17:54 | 41.92561 | 4.74306 | 23951 ft | 269 kts | 11° |
| 2026-04-20 17:54 | 41.94345 | 4.75063 | 23952 ft | 269 kts | 11° |
| 2026-04-20 17:54 | 41.96141 | 4.75791 | 23951 ft | 271 kts | 10° |
| 2026-04-20 17:55 | 41.97955 | 4.76511 | 23953 ft | 273 kts | 10° |
| 2026-04-20 17:55 | 41.99807 | 4.77251 | 23951 ft | 275 kts | 10° |
| 2026-04-20 17:55 | 42.01644 | 4.77985 | 23953 ft | 276 kts | 10° |
| 2026-04-20 17:55 | 42.03484 | 4.78721 | 23952 ft | 277 kts | 10° |
| 2026-04-20 17:56 | 42.05332 | 4.79459 | 23953 ft | 278 kts | 10° |
| 2026-04-20 17:56 | 42.07177 | 4.80192 | 23949 ft | 278 kts | 10° |
| 2026-04-20 17:56 | 42.09072 | 4.80944 | 23952 ft | 278 kts | 9° |
| 2026-04-20 17:56 | 42.10927 | 4.81679 | 23949 ft | 279 kts | 10° |
| 2026-04-20 17:57 | 42.12788 | 4.82425 | 23949 ft | 279 kts | 10° |
| 2026-04-20 17:57 | 42.14652 | 4.83176 | 23948 ft | 280 kts | 9° |
| 2026-04-20 17:57 | 42.16519 | 4.83925 | 23945 ft | 280 kts | 10° |
| 2026-04-20 17:57 | 42.18382 | 4.84670 | 23947 ft | 280 kts | 9° |
| 2026-04-20 17:58 | 42.20249 | 4.85419 | 23950 ft | 280 kts | 9° |
| 2026-04-20 17:58 | 42.22120 | 4.86169 | 23945 ft | 280 kts | 9° |
| 2026-04-20 17:58 | 42.23986 | 4.86918 | 23946 ft | 280 kts | 9° |
| 2026-04-20 17:58 | 42.25881 | 4.87676 | 23943 ft | 280 kts | 9° |
| 2026-04-20 17:59 | 42.27747 | 4.88426 | 23942 ft | 280 kts | 9° |
| 2026-04-20 17:59 | 42.29615 | 4.89178 | 23941 ft | 280 kts | 9° |
| 2026-04-20 17:59 | 42.31485 | 4.89928 | 23941 ft | 280 kts | 9° |
| 2026-04-20 17:59 | 42.33353 | 4.90680 | 23941 ft | 280 kts | 9° |
| 2026-04-20 18:00 | 42.35220 | 4.91431 | 23941 ft | 280 kts | 9° |
| 2026-04-20 18:00 | 42.37088 | 4.92184 | 23940 ft | 280 kts | 9° |
| 2026-04-20 18:00 | 42.38955 | 4.92936 | 23942 ft | 280 kts | 9° |
| 2026-04-20 18:00 | 42.40194 | 4.93435 | 23943 ft | 280 kts | 9° |
| 2026-04-20 18:01 | 42.41570 | 4.93991 | 23940 ft | 277 kts | 9° |
| 2026-04-20 18:01 | 42.43408 | 4.94729 | 23939 ft | 276 kts | 9° |
| 2026-04-20 18:01 | 42.45249 | 4.95470 | 23938 ft | 277 kts | 9° |
| 2026-04-20 18:01 | 42.47096 | 4.96220 | 23940 ft | 277 kts | 9° |
| 2026-04-20 18:02 | 42.48947 | 4.96976 | 23939 ft | 278 kts | 9° |
| 2026-04-20 18:02 | 42.50809 | 4.97734 | 23941 ft | 278 kts | 9° |
| 2026-04-20 18:02 | 42.52679 | 4.98494 | 23942 ft | 279 kts | 9° |
| 2026-04-20 18:02 | 42.54532 | 4.99264 | 23933 ft | 277 kts | 9° |
| 2026-04-20 18:03 | 42.56332 | 5.00167 | 23913 ft | 280 kts | 22° |
| 2026-04-20 18:03 | 42.57883 | 5.01858 | 23929 ft | 290 kts | 37° |
| 2026-04-20 18:03 | 42.59282 | 5.03867 | 23946 ft | 294 kts | 41° |
| 2026-04-20 18:03 | 42.60699 | 5.05992 | 23589 ft | 306 kts | 41° |
| 2026-04-20 18:04 | 42.62159 | 5.08128 | 23061 ft | 311 kts | 40° |
| 2026-04-20 18:04 | 42.63672 | 5.10244 | 22520 ft | 314 kts | 38° |
| 2026-04-20 18:04 | 42.65220 | 5.12349 | 21981 ft | 316 kts | 38° |
| 2026-04-20 18:04 | 42.66772 | 5.14484 | 21447 ft | 318 kts | 39° |
| 2026-04-20 18:05 | 42.69870 | 5.18817 | 20413 ft | 320 kts | 39° |
| 2026-04-20 18:05 | 42.71443 | 5.21018 | 19896 ft | 321 kts | 39° |
| 2026-04-20 18:05 | 42.72997 | 5.23189 | 19402 ft | 321 kts | 39° |
| 2026-04-20 18:06 | 42.74583 | 5.25406 | 18896 ft | 320 kts | 39° |
| 2026-04-20 18:06 | 42.76146 | 5.27592 | 18410 ft | 320 kts | 39° |
| 2026-04-20 18:06 | 42.77195 | 5.29061 | 18064 ft | 320 kts | 39° |
| 2026-04-20 18:06 | 42.78744 | 5.31231 | 17513 ft | 319 kts | 39° |
| 2026-04-20 18:07 | 42.80289 | 5.33397 | 16975 ft | 318 kts | 40° |
| 2026-04-20 18:07 | 42.81830 | 5.35558 | 16451 ft | 318 kts | 40° |
| 2026-04-20 18:07 | 42.83380 | 5.37734 | 15935 ft | 317 kts | 40° |
| 2026-04-20 18:07 | 42.84920 | 5.39898 | 15425 ft | 316 kts | 40° |
| 2026-04-20 18:08 | 42.86451 | 5.42052 | 14929 ft | 316 kts | 40° |
| 2026-04-20 18:08 | 42.87999 | 5.44230 | 14429 ft | 315 kts | 40° |
| 2026-04-20 18:08 | 42.89515 | 5.46369 | 13952 ft | 311 kts | 40° |
| 2026-04-20 18:08 | 42.91011 | 5.48478 | 13455 ft | 308 kts | 40° |
| 2026-04-20 18:09 | 42.92492 | 5.50565 | 12936 ft | 305 kts | 40° |
| 2026-04-20 18:09 | 42.93951 | 5.52627 | 12432 ft | 300 kts | 41° |
| 2026-04-20 18:09 | 42.95387 | 5.54669 | 11944 ft | 297 kts | 43° |
| 2026-04-20 18:09 | 42.96790 | 5.56743 | 11474 ft | 298 kts | 43° |
| 2026-04-20 18:10 | 42.98213 | 5.58786 | 11004 ft | 296 kts | 41° |
| 2026-04-20 18:10 | 42.99667 | 5.60805 | 10539 ft | 291 kts | 41° |
| 2026-04-20 18:10 | 43.01051 | 5.62756 | 10092 ft | 282 kts | 42° |
| 2026-04-20 18:10 | 43.02396 | 5.64662 | 9651 ft | 275 kts | 42° |
| 2026-04-20 18:11 | 43.03710 | 5.66524 | 9187 ft | 269 kts | 42° |
| 2026-04-20 18:11 | 43.04995 | 5.68346 | 8752 ft | 264 kts | 42° |
| 2026-04-20 18:11 | 43.06263 | 5.70145 | 8325 ft | 261 kts | 42° |
| 2026-04-20 18:11 | 43.07501 | 5.71904 | 7903 ft | 253 kts | 41° |
| 2026-04-20 18:12 | 43.08710 | 5.73623 | 7476 ft | 247 kts | 42° |
| 2026-04-20 18:12 | 43.09911 | 5.75328 | 7051 ft | 242 kts | 41° |
| 2026-04-20 18:12 | 43.11068 | 5.76965 | 6642 ft | 239 kts | 43° |
| 2026-04-20 18:12 | 43.12198 | 5.78613 | 6237 ft | 235 kts | 43° |
| 2026-04-20 18:13 | 43.13276 | 5.80165 | 5800 ft | 215 kts | 42° |
| 2026-04-20 18:13 | 43.14281 | 5.81589 | 5367 ft | 203 kts | 42° |
| 2026-04-20 18:13 | 43.15251 | 5.82948 | 4969 ft | 194 kts | 41° |
| 2026-04-20 18:13 | 43.16171 | 5.84252 | 4553 ft | 183 kts | 41° |
| 2026-04-20 18:14 | 43.17033 | 5.85475 | 4111 ft | 173 kts | 42° |
| 2026-04-20 18:14 | 43.17868 | 5.86656 | 3695 ft | 170 kts | 41° |
| 2026-04-20 18:14 | 43.18686 | 5.87804 | 3533 ft | 167 kts | 41° |
| 2026-04-20 18:14 | 43.19512 | 5.88871 | 3461 ft | 156 kts | 27° |
| 2026-04-20 18:15 | 43.20485 | 5.88976 | 3404 ft | 136 kts | 333° |
| 2026-04-20 18:15 | 43.21155 | 5.88169 | 3458 ft | 128 kts | 306° |
| 2026-04-20 18:15 | 43.21575 | 5.87075 | 3346 ft | 130 kts | 297° |
| 2026-04-20 18:15 | 43.21998 | 5.85987 | 3134 ft | 128 kts | 300° |
| 2026-04-20 18:16 | 43.22448 | 5.84933 | 2825 ft | 129 kts | 301° |
| 2026-04-20 18:16 | 43.22889 | 5.83866 | 2489 ft | 129 kts | 298° |
| 2026-04-20 18:16 | 43.23290 | 5.82813 | 2225 ft | 117 kts | 296° |
| 2026-04-20 18:16 | 43.23639 | 5.81835 | 1949 ft | 112 kts | 296° |
| 2026-04-20 18:17 | 43.24001 | 5.80905 | 1730 ft | 109 kts | 299° |
| 2026-04-20 18:17 | 43.24394 | 5.80062 | 1597 ft | 103 kts | 308° |
| 2026-04-20 18:17 | 43.24838 | 5.79287 | 1407 ft | 97 kts | 304° |
| 2026-04-20 18:17 | 43.25175 | 5.78674 | 1381 ft | 41 kts | 307° |
| 2026-04-20 18:18 | 43.25201 | 5.78612 | 1379 ft | 2 kts | 253° |
| 2026-04-20 18:18 | 43.25195 | 5.78595 | 1380 ft | 1 kts | 237° |
| 2026-04-20 18:18 | 43.25158 | 5.78552 | 1381 ft | 5 kts | 216° |
| 2026-04-20 18:18 | 43.25129 | 5.78530 | 1381 ft | 5 kts | 185° |
| 2026-04-20 18:19 | 43.25088 | 5.78573 | 1382 ft | 11 kts | 129° |
| 2026-04-20 18:19 | 43.25030 | 5.78667 | 1383 ft | 14 kts | 122° |
| 2026-04-20 18:19 | 43.25031 | 5.78705 | 1383 ft | 0 kts | 92° |
| 2026-04-20 18:19 | 43.25019 | 5.78741 | 1380 ft | 1 kts | 86° |
| 2026-04-20 18:20 | 43.25030 | 5.78746 | 1379 ft | 2 kts | 342° |
| 2026-04-20 18:20 | 43.25037 | 5.78739 | 1380 ft | 0 kts | 314° |